Time;durP1;ratioP1;P1;durP2;ratioP2;P2;SDS_P1;SDS_P2;PMS_P1;PMS_P2;Temp;Humidity;BMP_temperature;BMP_pressure;BME280_temperature;BME280_humidity;BME280_pressure;Samples;Min_cycle;Max_cycle;Signal;HPM_P1;HPM_P2
2021/12/29 00:01:06;;;;;;;13.32;8.05;;;;;;;8.11;100.00;100049.63;5115887;28;20028;-36
2021/12/29 00:03:31;;;;;;;12.33;8.60;;;;;;;8.15;100.00;100058.84;5116123;28;20181;-36
2021/12/29 00:05:56;;;;;;;13.40;8.40;;;;;;;8.19;100.00;100068.91;5096766;28;20043;-37
2021/12/29 00:08:22;;;;;;;11.57;8.90;;;;;;;8.20;100.00;100078.66;5115858;28;20475;-37
2021/12/29 00:10:54;;;;;;;12.57;9.75;;;;;;;8.20;100.00;100083.22;5115800;28;20035;-37
2021/12/29 00:13:20;;;;;;;11.23;9.30;;;;;;;8.18;100.00;100090.69;5116762;28;20078;-35
2021/12/29 00:15:46;;;;;;;13.20;9.70;;;;;;;8.14;100.00;100097.59;5116486;28;20345;-35
2021/12/29 00:18:11;;;;;;;17.20;9.90;;;;;;;8.19;100.00;100116.56;5097781;28;20027;-35
2021/12/29 00:20:36;;;;;;;10.67;8.87;;;;;;;8.20;100.00;100131.72;5115692;28;20023;-35
2021/12/29 00:23:04;;;;;;;14.27;10.50;;;;;;;8.20;100.00;100129.00;5115737;28;20077;-35
2021/12/29 00:25:30;;;;;;;13.75;9.35;;;;;;;8.07;100.00;100116.56;5115948;28;20552;-37
2021/12/29 00:27:58;;;;;;;16.38;8.95;;;;;;;8.16;100.00;100136.72;5115327;28;20080;-36
2021/12/29 00:30:24;;;;;;;13.07;8.45;;;;;;;8.21;100.00;100144.13;5115346;28;20039;-36
2021/12/29 00:32:49;;;;;;;12.32;8.70;;;;;;;8.21;100.00;100149.50;5115245;28;20020;-36
2021/12/29 00:35:15;;;;;;;14.17;9.30;;;;;;;8.21;100.00;100136.03;5115824;28;20038;-36
2021/12/29 00:37:41;;;;;;;11.35;7.47;;;;;;;8.18;100.00;100142.69;5115144;28;20031;-36
2021/12/29 00:40:09;;;;;;;12.13;7.70;;;;;;;8.20;100.00;100154.06;5115112;28;20027;-36
2021/12/29 00:42:35;;;;;;;11.05;7.30;;;;;;;8.21;100.00;100160.28;5115175;28;20031;-36
2021/12/29 00:45:00;;;;;;;11.20;7.93;;;;;;;8.21;100.00;100165.66;5115582;28;20519;-36
2021/12/29 00:47:29;;;;;;;10.77;7.63;;;;;;;8.10;100.00;100159.22;5114951;28;20808;-36
2021/12/29 00:49:55;;;;;;;8.35;6.65;;;;;;;8.16;100.00;100176.31;5115234;28;20266;-36
2021/12/29 00:52:21;;;;;;;11.30;8.15;;;;;;;8.20;100.00;100178.31;5114925;28;20187;-36
2021/12/29 00:54:46;;;;;;;9.80;7.33;;;;;;;8.08;100.00;100157.78;5096504;28;20152;-35
2021/12/29 00:57:12;;;;;;;9.33;7.13;;;;;;;8.20;100.00;100189.09;5114566;28;20100;-36
2021/12/29 00:59:37;;;;;;;10.40;7.70;;;;;;;8.12;100.00;100172.44;5115327;28;20020;-36
2021/12/29 01:02:03;;;;;;;12.30;7.60;;;;;;;8.21;100.00;100195.28;5114413;28;20024;-36
2021/12/29 01:04:28;;;;;;;8.13;7.32;;;;;;;8.22;100.00;100202.31;5114515;28;20030;-36
2021/12/29 01:06:54;;;;;;;10.40;7.50;;;;;;;8.19;100.00;100206.28;5115208;28;20070;-37
2021/12/29 01:09:19;;;;;;;8.88;7.25;;;;;;;8.19;100.00;100211.66;5115173;28;20051;-36
2021/12/29 01:11:45;;;;;;;11.00;7.70;;;;;;;8.22;100.00;100221.97;5115327;28;20043;-36
2021/12/29 01:14:10;;;;;;;9.30;7.03;;;;;;;8.22;100.00;100227.38;5114610;28;20068;-36
2021/12/29 01:16:37;;;;;;;9.27;7.70;;;;;;;8.21;100.00;100227.59;5114505;28;20028;-36
2021/12/29 01:19:10;;;;;;;9.73;7.50;;;;;;;8.21;100.00;100236.50;5114968;28;20020;-36
2021/12/29 01:21:38;;;;;;;9.82;7.68;;;;;;;8.22;100.00;100242.72;5114118;28;20023;-36
2021/12/29 01:24:05;;;;;;;13.18;8.48;;;;;;;8.22;100.00;100245.41;5114791;28;20035;-36
2021/12/29 01:26:31;;;;;;;9.93;7.57;;;;;;;8.03;100.00;100219.59;5114247;28;20019;-36
2021/12/29 01:28:57;;;;;;;9.07;7.23;;;;;;;8.21;100.00;100257.25;5114814;28;20024;-36
2021/12/29 01:31:22;;;;;;;8.52;7.00;;;;;;;8.22;100.00;100261.56;5113948;28;20433;-36
2021/12/29 01:33:47;;;;;;;11.90;7.77;;;;;;;8.20;100.00;100271.75;5114274;28;20168;-36
2021/12/29 01:36:13;;;;;;;13.32;7.45;;;;;;;8.13;100.00;100271.00;5114639;28;20028;-36
2021/12/29 01:38:38;;;;;;;11.33;7.30;;;;;;;8.17;100.00;100288.38;5114203;28;20032;-36
2021/12/29 01:41:04;;;;;;;11.60;7.27;;;;;;;8.19;100.00;100292.47;5095605;28;20281;-36
2021/12/29 01:43:29;;;;;;;10.47;7.63;;;;;;;8.21;100.00;100303.03;5095555;28;20388;-36
2021/12/29 01:45:55;;;;;;;13.20;7.18;;;;;;;8.12;100.00;100286.34;5113954;28;20274;-36
2021/12/29 01:48:20;;;;;;;10.23;7.17;;;;;;;8.20;100.00;100304.09;5114493;28;20027;-36
2021/12/29 01:50:50;;;;;;;7.47;6.53;;;;;;;8.13;100.00;100285.31;5114444;28;20024;-36
2021/12/29 01:53:23;;;;;;;9.90;7.05;;;;;;;8.19;100.00;100305.09;5114100;28;20050;-36
2021/12/29 01:55:50;;;;;;;9.93;7.10;;;;;;;8.20;100.00;100314.84;5114075;28;20032;-36
2021/12/29 01:58:17;;;;;;;11.85;6.72;;;;;;;8.12;100.00;100305.22;5113826;28;20020;-36
2021/12/29 02:00:42;;;;;;;;;;;;;;;8.23;100.00;100314.38;5114524;28;20035;-36
2021/12/29 02:03:08;;;;;;;10.50;6.22;;;;;;;8.18;100.00;100314.25;5113890;28;20279;-36
2021/12/29 02:05:38;;;;;;;8.90;6.90;;;;;;;8.18;100.00;100314.25;5114428;28;20052;-36
2021/12/29 02:08:05;;;;;;;11.00;7.50;;;;;;;8.11;100.00;100316.22;5114424;28;20039;-36
2021/12/29 02:10:36;;;;;;;9.48;7.57;;;;;;;8.20;100.00;100331.84;5114006;28;20047;-36
2021/12/29 02:13:02;;;;;;;11.32;7.78;;;;;;;8.15;100.00;100322.78;5113951;28;20031;-36
2021/12/29 02:15:27;;;;;;;12.10;7.13;;;;;;;8.20;100.00;100341.78;5113182;28;20020;-36
2021/12/29 02:17:53;;;;;;;9.70;7.00;;;;;;;8.20;100.00;100347.19;5113636;28;20027;-36
2021/12/29 02:20:20;;;;;;;9.65;7.03;;;;;;;8.16;100.00;100345.97;5113295;28;20106;-36
2021/12/29 02:22:50;;;;;;;9.32;7.55;;;;;;;8.21;100.00;100354.19;5113448;28;20038;-36
2021/12/29 02:27:54;;;;;;;11.65;7.95;;;;;;;8.20;100.00;100355.25;5113580;28;20032;-36
2021/12/29 02:30:23;;;;;;;9.95;7.88;;;;;;;8.12;100.00;100340.22;5113526;28;20490;-37
2021/12/29 02:32:54;;;;;;;12.50;8.65;;;;;;;8.16;100.00;100351.38;5113494;28;20067;-37
2021/12/29 02:35:21;;;;;;;12.88;8.82;;;;;;;8.19;100.00;100362.50;5113782;28;20464;-37
2021/12/29 02:37:46;;;;;;;12.30;9.10;;;;;;;8.18;100.00;100371.63;5113506;28;20378;-37
2021/12/29 02:40:12;;;;;;;11.17;8.83;;;;;;;8.17;100.00;100361.91;5113576;28;20027;-37
2021/12/29 02:42:40;;;;;;;13.73;9.63;;;;;;;8.18;100.00;100370.81;5113404;28;20032;-37
2021/12/29 02:45:13;;;;;;;14.38;9.07;;;;;;;8.14;100.00;100365.03;5113254;28;20424;-37
2021/12/29 02:47:39;;;;;;;13.57;9.23;;;;;;;8.15;100.00;100371.25;5113867;28;20032;-37
2021/12/29 02:50:05;;;;;;;12.43;9.37;;;;;;;8.15;100.00;100365.84;5114228;28;20024;-37
2021/12/29 02:52:30;;;;;;;11.52;8.38;;;;;;;8.16;100.00;100367.53;5113554;28;20055;-37
2021/12/29 02:54:56;;;;;;;12.93;8.20;;;;;;;8.15;100.00;100371.25;5113336;28;20047;-36
2021/12/29 02:57:21;;;;;;;12.00;8.80;;;;;;;8.14;100.00;100383.91;5112871;28;20031;-36
2021/12/29 02:59:47;;;;;;;14.30;9.33;;;;;;;8.14;100.00;100381.19;5113260;28;20024;-36
2021/12/29 03:02:12;;;;;;;14.93;9.80;;;;;;;8.13;100.00;100378.75;5113203;28;20032;-36
2021/12/29 03:04:38;;;;;;;12.90;9.70;;;;;;;7.95;100.00;100352.66;5114028;28;20111;-36
2021/12/29 03:07:04;;;;;;;16.42;10.05;;;;;;;8.12;100.00;100387.88;5113474;28;20495;-36
2021/12/29 03:09:29;;;;;;;16.58;10.90;;;;;;;8.11;100.00;100405.09;5113645;28;20046;-36
2021/12/29 03:11:55;;;;;;;16.90;11.05;;;;;;;8.09;100.00;100409.88;5112797;28;20505;-36
2021/12/29 03:14:21;;;;;;;14.98;10.30;;;;;;;8.09;100.00;100407.16;5113098;28;20031;-36
2021/12/29 03:16:46;;;;;;;17.58;10.95;;;;;;;8.11;100.00;100407.78;5112706;28;20027;-36
2021/12/29 03:19:13;;;;;;;20.10;11.50;;;;;;;8.06;100.00;100413.03;5112768;28;20024;-36
2021/12/29 03:21:39;;;;;;;14.00;11.65;;;;;;;8.08;100.00;100422.50;5113684;28;20461;-36
2021/12/29 03:24:06;;;;;;;15.25;11.43;;;;;;;8.08;100.00;100424.38;5112938;28;20035;-36
2021/12/29 03:26:32;;;;;;;16.70;11.32;;;;;;;8.06;100.00;100432.69;5114321;28;20379;-36
2021/12/29 03:28:57;;;;;;;16.25;10.90;;;;;;;8.06;100.00;100429.19;5116386;28;20028;-36
2021/12/29 03:31:24;;;;;;;19.75;12.43;;;;;;;8.05;100.00;100441.78;5116528;28;20073;-36
2021/12/29 03:33:51;;;;;;;16.45;12.48;;;;;;;8.05;100.00;100444.47;5117043;28;20031;-36
2021/12/29 03:36:18;;;;;;;20.02;12.95;;;;;;;8.06;100.00;100442.66;5116357;28;20102;-36
2021/12/29 03:38:45;;;;;;;17.52;12.43;;;;;;;8.05;100.00;100454.44;5116452;28;20031;-37
2021/12/29 03:41:13;;;;;;;19.90;13.18;;;;;;;7.95;100.00;100445.03;5116351;28;20492;-36
2021/12/29 03:43:40;;;;;;;18.55;12.65;;;;;;;8.01;100.00;100446.00;5116263;28;20023;-36
2021/12/29 03:46:07;;;;;;;20.30;13.73;;;;;;;8.03;100.00;100448.47;5116266;28;20027;-36
2021/12/29 03:48:34;;;;;;;18.30;12.40;;;;;;;7.94;100.00;100432.59;5116247;28;20168;-36
2021/12/29 03:51:01;;;;;;;17.70;12.80;;;;;;;8.03;100.00;100461.94;5116082;28;20118;-36
2021/12/29 03:53:27;;;;;;;16.80;12.63;;;;;;;8.02;100.00;100468.38;5116171;28;20490;-36
2021/12/29 03:55:53;;;;;;;14.80;12.65;;;;;;;8.02;100.00;100476.44;5098008;28;20028;-36
2021/12/29 03:58:20;;;;;;;17.75;13.07;;;;;;;8.02;100.00;100473.75;5115762;28;20024;-36
2021/12/29 04:00:47;;;;;;;16.65;13.27;;;;;;;8.02;100.00;100479.13;5115604;28;20033;-36
2021/12/29 04:03:13;;;;;;;21.83;14.27;;;;;;;8.02;100.00;100481.84;5116303;28;20367;-36
2021/12/29 04:05:39;;;;;;;20.27;13.57;;;;;;;8.02;100.00;100482.66;5115530;28;20051;-35
2021/12/29 04:08:04;;;;;;;16.40;12.73;;;;;;;7.92;100.00;100464.31;5115772;28;20024;-35
2021/12/29 04:10:31;;;;;;;23.23;14.25;;;;;;;7.99;100.00;100477.69;5115522;28;20038;-35
2021/12/29 04:12:56;;;;;;;;;;;;;;;8.04;100.00;100477.84;5116119;28;20028;-36
2021/12/29 04:15:24;;;;;;;18.13;12.43;;;;;;;7.99;100.00;100478.53;5116250;28;19974;-36
2021/12/29 04:17:51;;;;;;;17.95;12.07;;;;;;;7.98;100.00;100489.53;5115548;28;20084;-36
2021/12/29 04:23:07;;;;;;;17.33;12.82;;;;;;;7.96;100.00;100497.84;5115742;28;20038;-35
2021/12/29 04:25:36;;;;;;;23.88;13.10;;;;;;;7.88;100.00;100486.53;5115539;28;20102;-35
2021/12/29 04:28:03;;;;;;;23.13;13.32;;;;;;;7.93;100.00;100497.44;5115613;28;20038;-35
2021/12/29 04:30:29;;;;;;;18.00;11.93;;;;;;;7.95;100.00;100492.66;5115848;28;20028;-36
2021/12/29 04:32:55;;;;;;;19.30;13.23;;;;;;;7.94;100.00;100499.09;5115230;28;20035;-36
2021/12/29 04:35:22;;;;;;;21.42;12.38;;;;;;;7.93;100.00;100506.34;5115047;28;20483;-36
2021/12/29 04:37:49;;;;;;;19.80;13.25;;;;;;;7.92;100.00;100517.34;5115840;28;20108;-36
2021/12/29 04:40:14;;;;;;;23.67;13.35;;;;;;;7.94;100.00;100518.75;5116034;28;20375;-36
2021/12/29 04:42:39;;;;;;;16.85;12.73;;;;;;;7.74;100.00;100488.50;5115071;28;20032;-36
2021/12/29 04:45:05;;;;;;;18.87;13.13;;;;;;;7.93;100.00;100522.50;5097093;28;20047;-36
2021/12/29 04:47:31;;;;;;;19.25;12.80;;;;;;;7.86;100.00;100516.38;5115524;28;20051;-36
2021/12/29 04:50:00;;;;;;;19.17;13.68;;;;;;;7.93;100.00;100537.84;5097540;28;20442;-36
2021/12/29 04:52:27;;;;;;;22.73;13.40;;;;;;;7.92;100.00;100536.19;5114614;28;20035;-36
2021/12/29 04:54:53;;;;;;;17.73;12.30;;;;;;;7.92;100.00;100542.41;5115223;28;20045;-36
2021/12/29 04:57:18;;;;;;;18.13;13.10;;;;;;;7.92;100.00;100545.09;5115193;28;20027;-36
2021/12/29 04:59:43;;;;;;;21.93;13.87;;;;;;;7.94;100.00;100552.94;5096229;28;20094;-37
2021/12/29 05:02:09;;;;;;;17.53;12.20;;;;;;;7.92;100.00;100550.47;5114331;28;20035;-36
2021/12/29 05:04:44;;;;;;;20.52;14.02;;;;;;;7.92;100.00;100552.34;5115489;28;20027;-36
2021/12/29 05:09:54;;;;;;;16.90;11.80;;;;;;;7.92;100.00;100555.03;5114652;28;20042;-36
2021/12/29 05:12:19;;;;;;;16.07;12.70;;;;;;;7.93;100.00;100557.50;5114504;28;20023;-36
2021/12/29 05:14:45;;;;;;;21.05;12.10;;;;;;;7.92;100.00;100550.47;5114595;28;20086;-36
2021/12/29 05:17:10;;;;;;;17.90;12.75;;;;;;;7.91;100.00;100548.00;5114722;28;20034;-36
2021/12/29 05:19:36;;;;;;;19.80;13.27;;;;;;;7.93;100.00;100551.28;5114400;28;20034;-36
2021/12/29 05:22:03;;;;;;;18.13;12.45;;;;;;;7.93;100.00;100549.41;5114092;28;20058;-36
2021/12/29 05:24:28;;;;;;;21.75;12.95;;;;;;;7.92;100.00;100555.03;5114225;28;20031;-36
2021/12/29 05:26:53;;;;;;;16.30;11.77;;;;;;;7.93;100.00;100557.50;5114526;28;20080;-36
2021/12/29 05:29:19;;;;;;;16.67;12.80;;;;;;;7.93;100.00;100560.19;5114562;28;20023;-36
2021/12/29 05:31:44;;;;;;;18.07;11.80;;;;;;;7.92;100.00;100555.84;5114142;28;20387;-36
2021/12/29 05:34:09;;;;;;;23.37;12.20;;;;;;;7.92;100.00;100553.16;5114992;28;20031;-36
2021/12/29 05:36:35;;;;;;;15.23;11.77;;;;;;;7.92;100.00;100560.41;5114129;28;20026;-36
2021/12/29 05:39:00;;;;;;;22.60;12.37;;;;;;;7.91;100.00;100567.69;5114066;28;20070;-36
2021/12/29 05:41:26;;;;;;;17.90;12.13;;;;;;;7.91;100.00;100565.00;5114306;28;20387;-37
2021/12/29 05:43:51;;;;;;;19.27;12.03;;;;;;;7.92;100.00;100569.31;5095836;28;20032;-36
2021/12/29 05:46:17;;;;;;;16.17;12.07;;;;;;;7.92;100.00;100572.00;5114022;28;20028;-36
2021/12/29 05:48:43;;;;;;;;;;;;;;;7.97;100.00;100563.28;5114512;28;20385;-36
2021/12/29 05:51:11;;;;;;;17.13;11.57;;;;;;;7.93;100.00;100567.44;5113948;28;19922;-36
2021/12/29 05:53:37;;;;;;;17.15;11.85;;;;;;;7.78;100.00;100548.94;5113865;28;20030;-36
2021/12/29 05:56:03;;;;;;;15.95;11.57;;;;;;;7.93;100.00;100568.28;5113571;28;20035;-36
2021/12/29 05:58:28;;;;;;;16.38;11.77;;;;;;;7.92;100.00;100577.41;5113769;28;20426;-36
2021/12/29 06:00:53;;;;;;;16.30;11.90;;;;;;;7.92;100.00;100568.50;5095803;28;20039;-36
2021/12/29 06:03:20;;;;;;;21.63;12.53;;;;;;;7.92;100.00;100571.19;5113451;28;20036;-36
2021/12/29 06:05:45;;;;;;;15.75;12.10;;;;;;;7.90;100.00;100570.56;5113719;28;20502;-36
2021/12/29 06:08:11;;;;;;;18.47;12.17;;;;;;;7.90;100.00;100584.84;5114010;28;20098;-36
2021/12/29 06:10:36;;;;;;;19.57;12.23;;;;;;;7.89;100.00;100577.81;5113514;28;20054;-36
2021/12/29 06:13:02;;;;;;;16.07;11.93;;;;;;;7.90;100.00;100592.09;5095422;28;20059;-36
2021/12/29 06:15:27;;;;;;;16.48;12.25;;;;;;;7.89;100.00;100596.66;5113621;28;20027;-36
2021/12/29 06:17:52;;;;;;;18.23;12.03;;;;;;;7.88;100.00;100599.59;5113299;28;20463;-36
2021/12/29 06:20:18;;;;;;;17.73;11.80;;;;;;;7.85;100.00;100595.44;5095865;28;20356;-36
2021/12/29 06:22:44;;;;;;;17.90;12.35;;;;;;;7.88;100.00;100603.09;5113554;28;20103;-36
2021/12/29 06:25:12;;;;;;;17.35;12.68;;;;;;;7.86;100.00;100610.59;5113848;28;20368;-36
2021/12/29 06:27:38;;;;;;;17.42;12.52;;;;;;;7.87;100.00;100616.78;5113684;28;20384;-36
2021/12/29 06:30:05;;;;;;;17.48;12.32;;;;;;;7.85;100.00;100625.06;5113520;28;20023;-36
2021/12/29 06:32:31;;;;;;;20.42;11.95;;;;;;;7.86;100.00;100620.53;5113367;28;20032;-36
2021/12/29 06:34:56;;;;;;;17.80;12.93;;;;;;;7.86;100.00;100626.75;5113472;28;20361;-36
2021/12/29 06:37:22;;;;;;;16.70;11.82;;;;;;;7.85;100.00;100626.94;5113664;28;20096;-37
2021/12/29 06:39:48;;;;;;;21.92;12.75;;;;;;;7.84;100.00;100636.88;5113721;28;20028;-36
2021/12/29 06:42:15;;;;;;;19.47;12.47;;;;;;;7.85;100.00;100635.00;5113325;28;20365;-36
2021/12/29 06:44:41;;;;;;;19.58;11.82;;;;;;;7.81;100.00;100629.25;5113412;28;20027;-36
2021/12/29 06:47:07;;;;;;;;;;;;;;;7.86;100.00;100629.44;5114113;28;20024;-36
2021/12/29 06:49:33;;;;;;;16.38;12.05;;;;;;;7.72;100.00;100620.63;5113688;28;19915;-37
2021/12/29 06:52:00;;;;;;;18.80;11.82;;;;;;;7.79;100.00;100631.34;5113289;28;20027;-36
2021/12/29 06:54:25;;;;;;;15.75;11.50;;;;;;;7.80;100.00;100632.16;5113293;28;20031;-36
2021/12/29 06:56:50;;;;;;;20.87;12.83;;;;;;;7.79;100.00;100634.03;5113426;28;20024;-36
2021/12/29 06:59:16;;;;;;;16.87;11.30;;;;;;;7.80;100.00;100642.91;5095684;28;20038;-36
2021/12/29 07:01:41;;;;;;;20.27;12.50;;;;;;;7.76;100.00;100642.56;5115183;28;20080;-37
2021/12/29 07:04:07;;;;;;;22.13;11.43;;;;;;;7.62;100.00;100624.84;5117727;28;20045;-36
2021/12/29 07:06:32;;;;;;;;;;;;;;;7.80;100.00;100643.75;5118023;28;20089;-36
2021/12/29 07:08:58;;;;;;;20.98;10.80;;;;;;;7.75;100.00;100638.19;5116716;28;19915;-36
2021/12/29 07:11:23;;;;;;;18.97;11.43;;;;;;;7.72;100.00;100652.91;5116659;28;20123;-36
2021/12/29 07:13:49;;;;;;;18.67;11.80;;;;;;;7.73;100.00;100659.13;5117484;28;20035;-36
2021/12/29 07:16:15;;;;;;;15.90;11.48;;;;;;;7.68;100.00;100650.88;5116582;28;20038;-36
2021/12/29 07:18:40;;;;;;;17.00;11.30;;;;;;;7.69;100.00;100660.59;5117156;28;20019;-36
2021/12/29 07:21:06;;;;;;;17.47;10.67;;;;;;;7.71;100.00;100678.19;5116852;28;20383;-36
2021/12/29 07:23:31;;;;;;;16.27;11.20;;;;;;;7.71;100.00;100677.34;5116646;28;20055;-36
2021/12/29 07:25:56;;;;;;;15.80;11.47;;;;;;;7.71;100.00;100672.81;5116710;28;20035;-36
2021/12/29 07:28:22;;;;;;;18.70;10.80;;;;;;;7.70;100.00;100678.38;5116923;28;20031;-36
2021/12/29 07:30:47;;;;;;;18.10;10.97;;;;;;;7.69;100.00;100687.50;5116591;28;20044;-37
2021/12/29 07:33:12;;;;;;;15.97;10.83;;;;;;;7.67;100.00;100690.44;5116532;28;20068;-36
2021/12/29 07:35:38;;;;;;;16.50;10.37;;;;;;;7.61;100.00;100687.75;5116460;28;20059;-36
2021/12/29 07:38:03;;;;;;;15.95;11.25;;;;;;;7.63;100.00;100683.81;5116447;28;20028;-36
2021/12/29 07:40:30;;;;;;;16.53;10.70;;;;;;;7.69;100.00;100698.28;5116694;28;20024;-36
2021/12/29 07:42:56;;;;;;;16.50;11.10;;;;;;;7.62;100.00;100697.50;5116488;28;20465;-36
2021/12/29 07:45:23;;;;;;;16.17;10.77;;;;;;;7.65;100.00;100700.56;5116629;28;20416;-36
2021/12/29 07:47:49;;;;;;;16.80;10.50;;;;;;;7.67;100.00;100703.06;5116642;28;20042;-36
2021/12/29 07:50:17;;;;;;;15.32;9.95;;;;;;;7.63;100.00;100697.28;5117080;28;20032;-36
2021/12/29 07:52:48;;;;;;;20.52;10.20;;;;;;;7.61;100.00;100685.06;5116752;28;20019;-36
2021/12/29 07:55:18;;;;;;;17.17;9.57;;;;;;;7.63;100.00;100699.16;5116157;28;20098;-36
2021/12/29 07:57:44;;;;;;;15.30;9.88;;;;;;;7.64;100.00;100703.47;5116935;28;20356;-37
2021/12/29 08:00:10;;;;;;;13.88;8.93;;;;;;;7.66;100.00;100699.53;5116369;28;20023;-36
2021/12/29 08:02:37;;;;;;;16.80;8.70;;;;;;;7.62;100.00;100689.44;5116001;28;20059;-37
2021/12/29 08:05:07;;;;;;;14.35;8.90;;;;;;;7.64;100.00;100692.72;5116103;28;20031;-36
2021/12/29 08:07:33;;;;;;;12.95;7.97;;;;;;;7.63;100.00;100699.97;5115777;28;20391;-37
2021/12/29 08:09:59;;;;;;;10.20;7.32;;;;;;;7.60;100.00;100700.38;5116236;28;20035;-37
2021/12/29 08:12:25;;;;;;;12.15;7.07;;;;;;;7.49;100.00;100680.38;5115763;28;20039;-36
2021/12/29 08:14:51;;;;;;;12.73;6.80;;;;;;;7.63;100.00;100704.53;5116600;28;20047;-36
2021/12/29 08:17:16;;;;;;;10.50;6.80;;;;;;;7.62;100.00;100703.72;5116267;28;20538;-36
2021/12/29 08:19:43;;;;;;;10.48;7.20;;;;;;;7.64;100.00;100709.69;5116344;28;20076;-35
2021/12/29 08:22:08;;;;;;;10.25;6.65;;;;;;;7.61;100.00;100693.13;5115591;28;20472;-36
2021/12/29 08:24:34;;;;;;;14.43;6.75;;;;;;;7.64;100.00;100708.88;5115576;28;20118;-36
2021/12/29 08:26:59;;;;;;;11.13;6.20;;;;;;;7.65;100.00;100702.44;5115269;28;20369;-36
2021/12/29 08:29:25;;;;;;;11.67;7.27;;;;;;;7.59;100.00;100693.34;5115882;28;20027;-36
2021/12/29 08:31:50;;;;;;;9.30;7.03;;;;;;;7.66;100.00;100704.06;5115178;28;20449;-36
2021/12/29 08:34:16;;;;;;;10.40;6.53;;;;;;;7.62;100.00;100700.19;5115763;28;20043;-35
2021/12/29 08:36:42;;;;;;;12.63;6.80;;;;;;;7.67;100.00;100703.06;5115656;28;20024;-35
2021/12/29 08:39:07;;;;;;;;;;;;;;;7.73;100.00;100712.97;5116032;28;20023;-35
2021/12/29 08:41:33;;;;;;;9.05;5.75;;;;;;;7.71;100.00;100710.50;5115311;28;19976;-35
2021/12/29 08:43:59;;;;;;;13.15;6.60;;;;;;;7.70;100.00;100706.13;5096995;28;20432;-35
2021/12/29 08:46:24;;;;;;;12.25;5.90;;;;;;;7.75;100.00;100716.25;5115161;28;20053;-35
2021/12/29 08:48:50;;;;;;;10.43;6.65;;;;;;;7.71;100.00;100723.94;5115797;28;20028;-35
2021/12/29 08:51:17;;;;;;;12.77;7.50;;;;;;;7.64;100.00;100711.56;5115339;28;20088;-35
2021/12/29 08:53:43;;;;;;;13.18;8.45;;;;;;;7.73;100.00;100721.03;5115581;28;20042;-35
2021/12/29 08:56:08;;;;;;;13.73;8.35;;;;;;;7.73;100.00;100707.56;5114999;28;20406;-35
2021/12/29 08:58:33;;;;;;;11.93;8.00;;;;;;;7.73;100.00;100712.97;5115757;28;20031;-35
2021/12/29 09:01:00;;;;;;;13.20;8.03;;;;;;;7.75;100.00;100710.88;5114867;28;20032;-35
2021/12/29 09:03:26;;;;;;;13.23;8.27;;;;;;;7.74;100.00;100709.22;5115049;28;20284;-36
2021/12/29 09:05:52;;;;;;;13.75;7.90;;;;;;;7.79;100.00;100724.72;5114559;28;20051;-35
2021/12/29 09:08:17;;;;;;;12.52;7.80;;;;;;;7.80;100.00;100719.13;5114764;28;20089;-35
2021/12/29 09:10:44;;;;;;;11.90;7.73;;;;;;;7.73;100.00;100707.56;5115266;28;20125;-35
2021/12/29 09:13:10;;;;;;;12.27;7.47;;;;;;;7.84;100.00;100719.53;5114573;28;20763;-36
2021/12/29 09:15:36;;;;;;;10.35;7.85;;;;;;;7.86;100.00;100717.47;5115371;28;20051;-36
2021/12/29 09:18:01;;;;;;;12.37;8.13;;;;;;;7.88;100.00;100720.75;5114605;28;20436;-36
2021/12/29 09:20:30;;;;;;;12.67;8.20;;;;;;;7.87;100.00;100711.84;5114518;28;20028;-36
2021/12/29 09:23:00;;;;;;;11.20;8.48;;;;;;;7.92;100.00;100705.81;5114313;28;20069;-36
2021/12/29 09:25:26;;;;;;;11.38;8.48;;;;;;;7.92;100.00;100700.44;5114082;28;20023;-36
2021/12/29 09:27:51;;;;;;;9.50;8.13;;;;;;;7.94;100.00;100699.16;5114368;28;20019;-36
2021/12/29 09:30:22;;;;;;;14.27;8.50;;;;;;;7.89;100.00;100685.53;5114703;28;20030;-36
2021/12/29 09:32:47;;;;;;;13.02;8.80;;;;;;;7.96;100.00;100701.66;5114771;28;20032;-36
2021/12/29 09:35:13;;;;;;;11.27;8.83;;;;;;;7.98;100.00;100699.56;5114631;28;20019;-36
2021/12/29 09:37:39;;;;;;;12.25;8.57;;;;;;;7.79;100.00;100666.31;5113874;28;20027;-36
2021/12/29 09:40:05;;;;;;;14.65;8.93;;;;;;;7.85;100.00;100681.59;5114437;28;20055;-36
2021/12/29 09:42:30;;;;;;;16.17;10.02;;;;;;;7.80;100.00;100681.44;5078050;28;20502;-36
2021/12/29 09:44:56;;;;;;;13.90;10.13;;;;;;;7.94;100.00;100699.16;5113752;28;20052;-36
2021/12/29 09:47:21;;;;;;;10.57;9.27;;;;;;;7.97;100.00;100698.72;5114031;28;20030;-36
2021/12/29 09:49:47;;;;;;;12.83;10.43;;;;;;;7.98;100.00;100696.84;5114015;28;20473;-36
2021/12/29 09:52:13;;;;;;;10.73;9.40;;;;;;;7.99;100.00;100695.81;5113950;28;20566;-36
2021/12/29 09:54:38;;;;;;;14.73;10.60;;;;;;;7.99;100.00;100688.56;5114705;28;20024;-36
2021/12/29 09:57:04;;;;;;;11.67;10.17;;;;;;;7.99;100.00;100680.47;5113895;28;20110;-36
2021/12/29 09:59:29;;;;;;;15.63;10.93;;;;;;;7.96;100.00;100680.94;5114386;28;20019;-36
2021/12/29 10:01:57;;;;;;;13.32;9.90;;;;;;;8.06;100.00;100695.78;5095984;28;20214;-36
2021/12/29 10:04:23;;;;;;;14.02;10.23;;;;;;;8.08;100.00;100689.13;5113685;28;20383;-36
2021/12/29 10:06:48;;;;;;;12.85;10.75;;;;;;;8.12;100.00;100689.53;5113953;28;20053;-35
2021/12/29 10:09:16;;;;;;;14.30;9.50;;;;;;;8.19;100.00;100695.66;5114319;28;20046;-35
2021/12/29 10:11:42;;;;;;;11.85;9.73;;;;;;;8.25;100.00;100694.81;5113737;28;20053;-36
2021/12/29 10:14:09;;;;;;;;;;;;;;;8.43;100.00;100700.28;5114668;28;20019;-36
2021/12/29 10:16:35;;;;;;;14.13;9.70;;;;;;;8.40;100.00;100697.22;5114189;28;19922;-36
2021/12/29 10:19:02;;;;;;;;;;;;;;;8.50;100.00;100692.16;5113821;28;20106;-36
2021/12/29 10:21:28;;;;;;;12.70;9.07;;;;;;;8.37;100.00;100684.16;5113694;28;19934;-36
2021/12/29 10:23:55;;;;;;;13.93;8.98;;;;;;;8.46;100.00;100697.16;5113875;28;20031;-36
2021/12/29 10:26:24;;;;;;;12.10;8.13;;;;;;;8.42;100.00;100690.53;5113341;28;20027;-36
2021/12/29 10:28:51;;;;;;;12.45;8.10;;;;;;;8.32;100.00;100655.16;5113970;28;20122;-36
2021/12/29 10:31:32;;;;;;;12.63;7.57;;;;;;;8.41;100.00;100661.94;5113938;28;20039;-36
2021/12/29 10:34:03;;;;;;;9.68;7.35;;;;;;;8.34;100.00;100641.47;5114362;28;20118;-36
2021/12/29 10:36:37;;;;;;;10.95;7.72;;;;;;;8.36;100.00;100645.63;5098892;28;20023;-36
2021/12/29 10:39:10;;;;;;;8.30;6.60;;;;;;;8.37;100.00;100649.97;5118272;28;20035;-37
2021/12/29 10:42:06;;;;;;;12.02;6.90;;;;;;;8.41;100.00;100655.75;5118388;28;20080;-36
2021/12/29 10:44:36;;;;;;;14.60;6.90;;;;;;;8.41;100.00;100664.66;5114949;28;20031;-36
2021/12/29 10:47:15;;;;;;;9.35;6.15;;;;;;;8.45;100.00;100673.94;5117078;28;20471;-36
2021/12/29 10:50:04;;;;;;;10.35;6.15;;;;;;;8.49;100.00;100661.69;5117742;28;20028;-36
2021/12/29 10:52:48;;;;;;;12.63;6.10;;;;;;;8.43;100.00;100641.00;5117392;28;20525;-36
2021/12/29 10:55:32;;;;;;;12.23;6.97;;;;;;;8.51;100.00;100651.50;5117578;28;20081;-36
2021/12/29 10:58:11;;;;;;;11.27;6.15;;;;;;;8.49;100.00;100652.75;5117827;28;20027;-36
2021/12/29 11:00:40;;;;;;;11.00;5.63;;;;;;;8.38;100.00;100643.53;5117550;28;20032;-36
2021/12/29 11:03:13;;;;;;;9.45;5.68;;;;;;;8.38;100.00;100662.38;5117039;28;20023;-36
2021/12/29 11:05:40;;;;;;;12.15;5.88;;;;;;;8.40;100.00;100672.97;5117191;28;20125;-36
2021/12/29 11:08:11;;;;;;;12.20;5.93;;;;;;;8.45;100.00;100683.91;5117780;28;20544;-36
2021/12/29 11:10:37;;;;;;;12.18;5.18;;;;;;;8.38;100.00;100670.47;5117854;28;20034;-36
2021/12/29 11:13:03;;;;;;;13.30;6.60;;;;;;;8.47;100.00;100681.78;5117315;28;20110;-36
2021/12/29 11:15:33;;;;;;;10.00;5.43;;;;;;;8.49;100.00;100677.00;5117331;28;20026;-36
2021/12/29 11:18:06;;;;;;;10.02;5.93;;;;;;;8.40;100.00;100673.78;5117221;28;20027;-36
2021/12/29 11:20:33;;;;;;;12.32;5.90;;;;;;;8.43;100.00;100684.09;5117703;28;20038;-36
2021/12/29 11:23:13;;;;;;;12.02;5.82;;;;;;;8.47;100.00;100684.50;5116442;28;20110;-40